createdAt,value
2018-09-09T00:00:44.369Z,2.80
2018-09-09T00:05:48.014Z,2.57
2018-09-09T00:10:51.587Z,2.50
2018-09-09T00:15:55.188Z,2.90
2018-09-09T00:20:58.705Z,3.00
2018-09-09T00:26:02.298Z,2.67
2018-09-09T00:31:05.818Z,2.43
2018-09-09T00:36:09.335Z,2.47
2018-09-09T00:41:19.383Z,2.23
2018-09-09T00:46:22.929Z,2.47
2018-09-09T00:51:31.803Z,2.57
2018-09-09T00:56:35.333Z,2.40
2018-09-09T01:01:44.919Z,2.77
2018-09-09T01:06:55.156Z,2.60
2018-09-09T01:12:03.536Z,2.57
2018-09-09T01:17:07.252Z,2.50
2018-09-09T01:22:16.651Z,2.30
2018-09-09T01:27:31.469Z,2.43
2018-09-09T01:32:36.020Z,2.20
2018-09-09T01:37:46.542Z,2.20
2018-09-09T01:43:00.002Z,2.40
2018-09-09T01:48:04.873Z,2.50
2018-09-09T01:53:08.426Z,2.30
2018-09-09T01:58:17.398Z,2.80
2018-09-09T02:03:20.918Z,2.67
2018-09-09T02:08:37.697Z,2.50
2018-09-09T02:13:41.333Z,2.40
2018-09-09T02:18:44.993Z,2.33
2018-09-09T02:23:50.673Z,2.43
2018-09-09T02:28:54.221Z,2.20
2018-09-09T02:34:01.073Z,2.33
2018-09-09T02:39:06.634Z,2.47
2018-09-09T02:44:10.334Z,2.43
2018-09-09T02:49:14.919Z,2.27
2018-09-09T02:54:18.905Z,2.43
2018-09-09T02:59:22.508Z,2.30
2018-09-09T03:04:33.711Z,2.40
2018-09-09T03:09:37.448Z,2.90
2018-09-09T03:14:42.086Z,2.40
2018-09-09T03:19:46.178Z,2.30
2018-09-09T03:24:53.622Z,2.10
2018-09-09T03:29:57.326Z,2.00
2018-09-09T03:35:00.878Z,2.07
2018-09-09T03:40:04.477Z,2.30
2018-09-09T03:45:08.177Z,2.30
2018-09-09T03:50:11.706Z,2.10
2018-09-09T03:55:16.277Z,2.20
2018-09-09T04:00:19.819Z,2.43
2018-09-09T04:05:23.430Z,2.23
2018-09-09T04:10:39.047Z,2.40
2018-09-09T04:15:54.341Z,2.63
2018-09-09T04:20:57.998Z,2.00
2018-09-09T04:26:01.534Z,2.10
2018-09-09T04:31:05.143Z,2.00
2018-09-09T04:36:08.801Z,2.20
2018-09-09T04:41:12.398Z,2.00
2018-09-09T04:46:16.064Z,2.50
2018-09-09T04:51:19.599Z,2.30
2018-09-09T04:56:37.542Z,2.17
2018-09-09T05:01:41.118Z,2.47
2018-09-09T05:06:44.660Z,2.20
2018-09-09T05:11:48.221Z,2.60
2018-09-09T05:16:51.794Z,2.43
2018-09-09T05:22:00.975Z,2.03
2018-09-09T05:27:04.525Z,2.17
2018-09-09T05:32:10.169Z,2.57
2018-09-09T05:37:13.735Z,2.10
2018-09-09T05:42:17.481Z,2.40
2018-09-09T05:47:21.151Z,2.30
2018-09-09T05:52:24.715Z,2.30
2018-09-09T05:57:34.324Z,2.10
2018-09-09T06:02:38.002Z,2.10
2018-09-09T06:07:41.605Z,2.30
2018-09-09T06:12:45.122Z,2.37
2018-09-09T06:17:48.750Z,2.43
2018-09-09T06:23:08.938Z,2.30
2018-09-09T06:28:12.520Z,2.40
2018-09-09T06:33:28.564Z,2.30
2018-09-09T06:38:32.079Z,2.30
2018-09-09T06:43:35.610Z,2.30
2018-09-09T06:48:39.311Z,2.50
2018-09-09T06:53:46.291Z,2.53
2018-09-09T06:58:49.994Z,2.80
2018-09-09T07:03:53.644Z,2.73
2018-09-09T07:09:05.629Z,2.30
2018-09-09T07:14:09.277Z,2.70
2018-09-09T07:19:12.880Z,2.53
2018-09-09T07:24:26.329Z,2.80
2018-09-09T07:29:35.830Z,3.17
2018-09-09T07:34:39.526Z,3.37
2018-09-09T07:39:43.111Z,2.70
2018-09-09T07:44:46.773Z,2.87
2018-09-09T07:49:50.407Z,2.63
2018-09-09T07:54:54.101Z,2.67
2018-09-09T08:00:02.070Z,3.13
2018-09-09T08:05:07.216Z,2.33
2018-09-09T08:10:10.813Z,2.50
2018-09-09T08:15:14.410Z,2.20
2018-09-09T08:20:19.065Z,2.30
2018-09-09T08:25:22.879Z,2.17
2018-09-09T08:30:26.510Z,3.73
2018-09-09T08:35:32.490Z,1.80
2018-09-09T08:40:36.200Z,2.37
2018-09-09T08:45:52.635Z,1.70
2018-09-09T08:50:57.453Z,2.00
2018-09-09T08:56:02.510Z,1.80
2018-09-09T09:01:06.305Z,1.93
2018-09-09T09:06:22.472Z,1.80
2018-09-09T09:11:26.132Z,2.07
2018-09-09T09:16:29.934Z,1.30
2018-09-09T09:21:33.666Z,1.60
2018-09-09T09:26:38.651Z,1.70
2018-09-09T09:31:42.447Z,1.70
2018-09-09T09:36:49.677Z,1.77
2018-09-09T09:41:53.570Z,1.30
2018-09-09T09:46:59.163Z,1.30
2018-09-09T09:52:04.159Z,1.40
2018-09-09T09:57:14.300Z,1.03
2018-09-09T10:02:18.035Z,1.20
2018-09-09T10:07:21.789Z,1.10
2018-09-09T10:12:28.184Z,1.27
2018-09-09T10:17:33.290Z,1.40
2018-09-09T10:22:39.006Z,1.17
2018-09-09T10:27:46.281Z,1.30
2018-09-09T10:32:49.922Z,1.60
2018-09-09T10:37:53.694Z,2.53
2018-09-09T10:43:04.642Z,4.30
2018-09-09T10:48:08.550Z,16.00
2018-09-09T10:53:12.622Z,8.73
2018-09-09T10:58:16.370Z,10.50
2018-09-09T11:03:20.225Z,5.20
2018-09-09T11:08:24.301Z,9.17
2018-09-09T11:13:32.310Z,14.67
2018-09-09T11:18:37.011Z,3.27
2018-09-09T11:23:42.010Z,1.40
2018-09-09T11:28:45.959Z,2.10
2018-09-09T11:33:49.500Z,2.23
2018-09-09T11:38:53.372Z,2.63
2018-09-09T11:44:00.596Z,3.80
2018-09-09T11:49:09.270Z,2.73
2018-09-09T11:54:13.633Z,1.10
2018-09-09T11:59:17.647Z,1.30
2018-09-09T12:04:23.297Z,0.90
2018-09-09T12:09:27.029Z,1.90
2018-09-09T12:14:31.628Z,1.67
2018-09-09T12:19:35.154Z,2.97
2018-09-09T12:24:56.793Z,2.77
2018-09-09T12:30:00.313Z,1.93
2018-09-09T12:35:03.934Z,1.10
2018-09-09T12:40:07.567Z,1.17
2018-09-09T12:45:16.737Z,1.20
2018-09-09T12:50:20.595Z,1.20
2018-09-09T12:55:24.361Z,1.60
2018-09-09T13:00:28.059Z,1.03
2018-09-09T13:05:31.699Z,2.50
2018-09-09T13:10:35.332Z,1.30
2018-09-09T13:15:45.071Z,1.10
2018-09-09T13:20:48.735Z,1.67
2018-09-09T13:25:52.437Z,1.27
2018-09-09T13:30:56.059Z,1.47
2018-09-09T13:35:59.651Z,1.20
2018-09-09T13:41:03.215Z,1.30
2018-09-09T13:46:06.849Z,1.03
2018-09-09T13:51:10.487Z,1.53
2018-09-09T13:56:16.143Z,1.10
2018-09-09T14:01:19.726Z,1.03
2018-09-09T14:06:23.386Z,1.37
2018-09-09T14:11:33.386Z,1.17
2018-09-09T14:16:36.961Z,1.10
2018-09-09T14:21:40.718Z,1.07
2018-09-09T14:26:44.306Z,1.10
2018-09-09T14:31:47.908Z,1.43
2018-09-09T14:36:56.750Z,0.90
2018-09-09T14:42:00.351Z,1.20
2018-09-09T14:47:04.034Z,1.20
2018-09-09T14:52:08.014Z,0.90
2018-09-09T14:57:11.585Z,0.90
2018-09-09T15:02:15.309Z,1.07
2018-09-09T15:07:18.863Z,1.13
2018-09-09T15:12:27.142Z,1.00
2018-09-09T15:17:34.962Z,1.13
2018-09-09T15:22:38.537Z,1.03
2018-09-09T15:27:43.158Z,1.20
2018-09-09T15:32:46.684Z,1.10
2018-09-09T15:37:50.347Z,1.20
2018-09-09T15:42:53.887Z,1.10
2018-09-09T15:47:57.446Z,1.00
2018-09-09T15:53:01.116Z,1.23
2018-09-09T15:58:04.926Z,1.20
2018-09-09T16:03:08.543Z,1.23
2018-09-09T16:08:15.931Z,1.03
2018-09-09T16:13:19.578Z,1.10
2018-09-09T16:18:26.691Z,1.20
2018-09-09T16:23:30.355Z,1.37
2018-09-09T16:28:33.952Z,1.10
2018-09-09T16:33:37.496Z,1.20
2018-09-09T16:38:41.050Z,1.10
2018-09-09T16:43:44.575Z,1.30
2018-09-09T16:48:48.176Z,1.37
2018-09-09T16:53:52.807Z,1.20
2018-09-09T16:58:56.695Z,1.37
2018-09-09T17:04:00.311Z,1.27
2018-09-09T17:09:04.832Z,1.10
2018-09-09T17:14:09.567Z,1.40
2018-09-09T17:19:13.169Z,1.20
2018-09-09T17:24:22.636Z,1.23
2018-09-09T17:29:26.758Z,1.10
2018-09-09T17:34:31.482Z,1.40
2018-09-09T17:39:35.054Z,1.40
2018-09-09T17:44:42.184Z,1.33
2018-09-09T17:49:45.699Z,1.17
2018-09-09T17:54:50.723Z,1.50
2018-09-09T17:59:54.356Z,1.30
2018-09-09T18:04:59.978Z,1.60
2018-09-09T18:10:03.698Z,1.30
2018-09-09T18:15:07.650Z,1.70
2018-09-09T18:20:11.269Z,1.57
2018-09-09T18:25:16.012Z,1.60
2018-09-09T18:30:20.690Z,1.33
2018-09-09T18:35:24.632Z,1.90
2018-09-09T18:40:33.165Z,1.73
2018-09-09T18:45:37.128Z,1.70
2018-09-09T18:50:44.137Z,1.60
2018-09-09T18:55:47.743Z,2.03
2018-09-09T19:00:52.525Z,1.73
2018-09-09T19:05:56.649Z,1.90
2018-09-09T19:11:00.254Z,1.70
2018-09-09T19:16:15.900Z,2.10
2018-09-09T19:21:20.809Z,1.77
2018-09-09T19:26:27.445Z,1.90
2018-09-09T19:31:31.136Z,1.87
2018-09-09T19:36:36.118Z,1.80
2018-09-09T19:41:40.840Z,1.93
2018-09-09T19:46:44.634Z,1.77
2018-09-09T19:51:49.588Z,1.80
2018-09-09T19:56:58.943Z,2.50
2018-09-09T20:02:02.900Z,2.00
2018-09-09T20:07:06.993Z,1.60
2018-09-09T20:12:10.818Z,1.63
2018-09-09T20:17:19.250Z,1.57
2018-09-09T20:22:23.114Z,1.70
2018-09-09T20:27:27.907Z,1.80
2018-09-09T20:32:36.297Z,1.70
2018-09-09T20:37:40.019Z,1.70
2018-09-09T20:42:43.653Z,1.80
2018-09-09T20:47:47.430Z,2.00
2018-09-09T20:52:51.077Z,1.80
2018-09-09T20:57:54.862Z,1.70
2018-09-09T21:02:58.699Z,1.83
2018-09-09T21:08:03.392Z,1.90
2018-09-09T21:13:07.198Z,1.60
2018-09-09T21:18:10.905Z,1.63
2018-09-09T21:23:14.525Z,1.70
2018-09-09T21:28:18.110Z,1.90
2018-09-09T21:33:21.698Z,1.50
2018-09-09T21:38:25.253Z,1.70
2018-09-09T21:43:28.847Z,1.77
2018-09-09T21:48:35.899Z,1.70
2018-09-09T21:53:39.642Z,1.90
2018-09-09T21:58:43.246Z,1.83
2018-09-09T22:03:47.070Z,1.93
2018-09-09T22:08:50.700Z,1.80
2018-09-09T22:13:56.136Z,1.63
2018-09-09T22:18:59.702Z,1.93
2018-09-09T22:24:03.246Z,1.80
2018-09-09T22:29:06.852Z,2.03
2018-09-09T22:34:10.442Z,2.10
2018-09-09T22:39:14.017Z,1.67
2018-09-09T22:44:17.722Z,1.73
2018-09-09T22:49:22.333Z,2.00
2018-09-09T22:54:26.010Z,1.60
2018-09-09T22:59:29.662Z,2.03
2018-09-09T23:04:34.306Z,2.00
2018-09-09T23:09:37.862Z,1.70
2018-09-09T23:14:41.500Z,1.87
2018-09-09T23:19:45.058Z,1.80
2018-09-09T23:24:48.648Z,2.00
2018-09-09T23:29:52.193Z,1.90
2018-09-09T23:34:55.839Z,1.97
2018-09-09T23:39:59.351Z,1.77
2018-09-09T23:45:02.954Z,1.90
2018-09-09T23:50:11.506Z,2.07
2018-09-09T23:55:15.082Z,2.20
